Time;durP1;ratioP1;P1;durP2;ratioP2;P2;SDS_P1;SDS_P2;PMS_P1;PMS_P2;Temp;Humidity;BMP_temperature;BMP_pressure;BME280_temperature;BME280_humidity;BME280_pressure;Samples;Min_cycle;Max_cycle;Signal;HPM_P1;HPM_P2
2023/08/05 00:01:39;;;;;;;;;;;14.90;99.90;;;;;;5112177;28;20329;-71
2023/08/05 00:04:06;;;;;;;;;;;15.00;99.90;;;;;;5109164;27;20019;-70
2023/08/05 00:06:32;;;;;;;;;;;15.20;99.90;;;;;;5112534;28;20007;-70
2023/08/05 00:08:59;;;;;;;;;;;15.30;99.90;;;;;;5112627;28;19918;-67
2023/08/05 00:11:26;;;;;;;;;;;15.40;99.90;;;;;;5112534;28;20420;-70
2023/08/05 00:13:52;;;;;;;;;;;15.60;99.90;;;;;;5089801;28;20004;-69
2023/08/05 00:16:19;;;;;;;;;;;15.80;99.90;;;;;;5111826;28;19912;-66
2023/08/05 00:18:46;;;;;;;;;;;15.80;99.90;;;;;;5111750;28;19912;-67
2023/08/05 00:21:12;;;;;;;;;;;15.90;99.90;;;;;;5107955;28;19930;-70
2023/08/05 00:23:39;;;;;;;;;;;15.90;99.90;;;;;;5108715;28;20277;-69
2023/08/05 00:26:05;;;;;;;;;;;16.00;99.90;;;;;;5092125;28;20403;-70
2023/08/05 00:28:32;;;;;;;;;;;16.10;99.90;;;;;;5092970;28;19915;-68
2023/08/05 00:30:59;;;;;;;;;;;16.20;99.90;;;;;;5096368;28;19912;-67
2023/08/05 00:33:25;;;;;;;;;;;16.30;99.90;;;;;;5101992;28;19919;-67
2023/08/05 00:35:52;;;;;;;;;;;16.40;99.90;;;;;;5092308;28;19913;-67
2023/08/05 00:38:20;;;;;;;;;;;16.50;99.90;;;;;;5091317;28;19915;-66
2023/08/05 00:40:46;;;;;;;;;;;16.60;99.90;;;;;;5097217;28;19919;-69
2023/08/05 00:43:13;;;;;;;;;;;16.60;99.90;;;;;;5099697;28;20042;-67
2023/08/05 00:45:40;;;;;;;;;;;16.70;99.90;;;;;;5111864;28;19941;-68
2023/08/05 00:48:07;;;;;;;;;;;16.80;99.90;;;;;;5112185;28;20248;-67
2023/08/05 00:50:34;;;;;;;;;;;16.90;99.90;;;;;;5099888;28;19919;-67
2023/08/05 00:53:01;;;;;;;;;;;17.00;99.90;;;;;;5094664;28;19913;-69
2023/08/05 00:55:28;;;;;;;;;;;17.10;99.60;;;;;;5107533;28;19911;-68
2023/08/05 00:57:54;;;;;;;;;;;17.30;99.60;;;;;;5111531;28;19919;-70
2023/08/05 01:00:21;;;;;;;;;;;17.40;99.30;;;;;;5101690;28;20339;-70
2023/08/05 01:02:48;;;;;;;;;;;17.50;99.40;;;;;;5095912;28;19965;-68
2023/08/05 01:05:14;;;;;;;;;;;17.60;98.90;;;;;;5113516;28;19977;-67
2023/08/05 01:07:43;;;;;;;;;;;17.60;98.60;;;;;;5116520;28;20361;-67
2023/08/05 01:10:09;;;;;;;;;;;17.70;98.50;;;;;;5107550;28;20006;-70
2023/08/05 01:12:36;;;;;;;;;;;17.80;98.40;;;;;;5108497;28;19937;-69
2023/08/05 01:15:03;;;;;;;;;;;17.80;98.00;;;;;;5107118;28;19919;-65
2023/08/05 01:17:29;;;;;;;;;;;17.80;98.00;;;;;;5116456;28;19998;-68
2023/08/05 01:19:56;;;;;;;;;;;17.90;98.00;;;;;;5109134;27;20295;-69
2023/08/05 01:22:44;;;;;;;;;;;17.80;97.50;;;;;;5098666;28;20356;-68
2023/08/05 01:25:29;;;;;;;;;;;17.80;97.50;;;;;;5114315;28;19920;-70
2023/08/05 01:27:56;;;;;;;;;;;17.70;97.70;;;;;;5116014;28;19907;-70
2023/08/05 01:30:24;;;;;;;;;;;17.70;98.00;;;;;;5105018;27;19959;-69
2023/08/05 01:32:51;;;;;;;;;;;17.60;97.90;;;;;;5094858;28;19908;-68
2023/08/05 01:35:20;;;;;;;;;;;17.60;98.00;;;;;;5107804;27;19915;-68
2023/08/05 01:37:47;;;;;;;;;;;17.60;97.90;;;;;;5115524;28;19908;-68
2023/08/05 01:40:14;;;;;;;;;;;17.60;97.90;;;;;;5106320;28;19912;-68
2023/08/05 01:42:41;;;;;;;;;;;17.60;97.50;;;;;;5098314;28;19920;-66
2023/08/05 01:45:08;;;;;;;;;;;17.70;97.90;;;;;;5104579;27;19944;-66
2023/08/05 01:47:35;;;;;;;;;;;17.70;98.00;;;;;;5115468;28;19923;-66
2023/08/05 01:50:02;;;;;;;;;;;17.70;98.00;;;;;;5107655;28;19912;-66
2023/08/05 01:52:29;;;;;;;;;;;17.60;97.70;;;;;;5106454;28;20375;-68
2023/08/05 01:54:55;;;;;;;;;;;17.70;97.80;;;;;;5103800;27;19911;-68
2023/08/05 01:57:22;;;;;;;;;;;17.90;97.80;;;;;;5115506;28;19912;-69
2023/08/05 01:59:49;;;;;;;;;;;17.90;97.80;;;;;;5109305;27;19916;-67
2023/08/05 02:02:15;;;;;;;;;;;17.90;97.90;;;;;;5094670;28;19912;-68
2023/08/05 02:04:42;;;;;;;;;;;18.00;97.60;;;;;;5096983;28;19920;-68
2023/08/05 02:07:08;;;;;;;;;;;18.10;97.60;;;;;;5093952;28;19923;-67
2023/08/05 02:09:35;;;;;;;;;;;18.10;97.40;;;;;;5095038;28;19919;-66
2023/08/05 02:12:02;;;;;;;;;;;18.10;97.60;;;;;;5095831;28;19912;-68
2023/08/05 02:14:28;;;;;;;;;;;18.00;97.40;;;;;;5099194;28;20002;-65
2023/08/05 02:16:55;;;;;;;;;;;18.00;97.50;;;;;;5114282;28;19961;-67
2023/08/05 02:19:22;;;;;;;;;;;17.90;97.60;;;;;;5115858;27;20397;-70
2023/08/05 02:21:48;;;;;;;;;;;17.90;97.70;;;;;;5135505;27;19908;-69
2023/08/05 02:24:15;;;;;;;;;;;17.90;97.90;;;;;;5104505;27;19926;-69
2023/08/05 02:26:42;;;;;;;;;;;17.80;97.80;;;;;;5114674;28;20280;-69
2023/08/05 02:29:08;;;;;;;;;;;17.70;97.60;;;;;;5106593;28;19957;-69
2023/08/05 02:31:35;;;;;;;;;;;17.80;97.70;;;;;;5110846;28;19973;-66
2023/08/05 02:34:02;;;;;;;;;;;17.80;97.70;;;;;;5113362;28;19961;-67
2023/08/05 02:36:28;;;;;;;;;;;17.70;97.70;;;;;;5113553;28;19907;-68
2023/08/05 02:38:55;;;;;;;;;;;17.70;97.70;;;;;;5114135;28;19908;-66
2023/08/05 02:41:21;;;;;;;;;;;17.70;97.80;;;;;;5111383;28;19912;-67
2023/08/05 02:43:48;;;;;;;;;;;17.70;97.80;;;;;;5111971;28;19920;-66
2023/08/05 02:46:15;;;;;;;;;;;17.70;97.80;;;;;;5114225;28;19912;-66
2023/08/05 02:48:41;;;;;;;;;;;17.70;97.90;;;;;;5111198;28;19918;-67
2023/08/05 02:51:08;;;;;;;;;;;17.70;97.90;;;;;;5095693;28;20006;-65
2023/08/05 02:53:35;;;;;;;;;;;17.70;97.90;;;;;;5114271;28;19915;-68
2023/08/05 02:56:02;;;;;;;;;;;17.60;97.80;;;;;;5114078;28;19916;-68
2023/08/05 02:58:28;;;;;;;;;;;17.70;97.90;;;;;;5113383;28;19908;-69
2023/08/05 03:01:03;;;;;;;;;;;17.70;98.00;;;;;;5113876;28;20360;-66
2023/08/05 03:03:30;;;;;;;;;;;17.70;98.20;;;;;;5108498;28;19919;-68
2023/08/05 03:05:57;;;;;;;;;;;17.70;98.40;;;;;;5108956;28;19912;-68
2023/08/05 03:08:23;;;;;;;;;;;17.70;98.50;;;;;;5113630;28;19908;-69
2023/08/05 03:10:58;;;;;;;;;;;17.60;98.70;;;;;;5110048;28;19912;-69
2023/08/05 03:13:24;;;;;;;;;;;17.70;98.80;;;;;;5113950;28;19912;-70
2023/08/05 03:15:51;;;;;;;;;;;17.70;99.00;;;;;;5112982;28;19954;-71
2023/08/05 03:18:18;;;;;;;;;;;17.80;99.00;;;;;;5113918;28;20302;-68
2023/08/05 03:20:44;;;;;;;;;;;17.80;98.80;;;;;;5113370;28;19961;-70
2023/08/05 03:23:11;;;;;;;;;;;17.90;98.80;;;;;;5112157;28;20376;-71
2023/08/05 03:25:38;;;;;;;;;;;18.10;98.60;;;;;;5111254;28;19962;-71
2023/08/05 03:28:05;;;;;;;;;;;18.20;98.50;;;;;;5112992;28;19968;-70
2023/08/05 03:30:31;;;;;;;;;;;18.20;98.00;;;;;;5113127;28;19912;-72
2023/08/05 03:32:58;;;;;;;;;;;18.30;98.10;;;;;;5106705;28;19915;-70
2023/08/05 03:35:25;;;;;;;;;;;18.30;98.00;;;;;;5111502;28;20047;-71
2023/08/05 03:37:51;;;;;;;;;;;18.50;98.00;;;;;;5112141;28;19908;-67
2023/08/05 03:40:18;;;;;;;;;;;18.50;98.00;;;;;;5113386;28;19907;-67
2023/08/05 03:42:46;;;;;;;;;;;18.50;97.90;;;;;;5112433;28;19912;-70
2023/08/05 03:45:13;;;;;;;;;;;18.60;97.70;;;;;;5111893;28;19924;-66
2023/08/05 03:47:39;;;;;;;;;;;18.40;97.20;;;;;;5111982;28;19912;-72
2023/08/05 03:50:08;;;;;;;;;;;18.30;97.30;;;;;;5112216;28;19915;-67
2023/08/05 03:52:34;;;;;;;;;;;18.20;97.50;;;;;;5112151;28;20582;-69
2023/08/05 03:55:01;;;;;;;;;;;18.10;97.80;;;;;;5112386;28;19908;-70
2023/08/05 03:57:28;;;;;;;;;;;18.10;97.90;;;;;;5112440;28;19908;-66
2023/08/05 03:59:56;;;;;;;;;;;18.00;98.00;;;;;;5111920;28;20372;-64
2023/08/05 04:02:23;;;;;;;;;;;18.00;98.20;;;;;;5097584;28;19920;-70
2023/08/05 04:04:49;;;;;;;;;;;18.10;98.10;;;;;;5093407;28;20384;-66
2023/08/05 04:07:19;;;;;;;;;;;18.00;98.10;;;;;;5099130;28;20364;-66
2023/08/05 04:09:48;;;;;;;;;;;18.00;98.20;;;;;;5113802;28;19939;-68
2023/08/05 04:12:15;;;;;;;;;;;18.10;98.20;;;;;;5102004;28;19923;-65
2023/08/05 04:14:43;;;;;;;;;;;18.00;98.40;;;;;;5093432;28;20019;-66
2023/08/05 04:17:12;;;;;;;;;;;18.00;98.60;;;;;;5093104;28;20326;-67
2023/08/05 04:19:38;;;;;;;;;;;18.10;98.70;;;;;;5093303;28;20323;-70
2023/08/05 04:22:05;;;;;;;;;;;18.00;98.90;;;;;;5107683;28;19934;-66
2023/08/05 04:24:32;;;;;;;;;;;18.00;98.80;;;;;;5113634;28;19915;-69
2023/08/05 04:26:59;;;;;;;;;;;17.90;98.90;;;;;;5113407;28;19911;-68
2023/08/05 04:29:26;;;;;;;;;;;18.00;98.80;;;;;;5113284;28;20279;-66
2023/08/05 04:31:53;;;;;;;;;;;17.90;99.00;;;;;;5113350;28;19908;-68
2023/08/05 04:34:20;;;;;;;;;;;17.90;99.10;;;;;;5113273;28;20288;-65
2023/08/05 04:36:51;;;;;;;;;;;18.00;99.40;;;;;;5094747;28;19912;-67
2023/08/05 04:39:21;;;;;;;;;;;17.90;99.50;;;;;;5092565;28;19930;-66
2023/08/05 04:41:48;;;;;;;;;;;17.90;99.90;;;;;;5100103;28;19964;-68
2023/08/05 04:44:14;;;;;;;;;;;17.90;99.90;;;;;;5094594;28;19959;-67
2023/08/05 04:46:41;;;;;;;;;;;17.90;99.90;;;;;;5113011;28;20252;-66
2023/08/05 04:49:10;;;;;;;;;;;17.80;99.90;;;;;;5108485;28;19919;-69
2023/08/05 04:51:36;;;;;;;;;;;17.80;99.90;;;;;;5092819;28;19908;-68
2023/08/05 04:54:05;;;;;;;;;;;17.80;99.90;;;;;;5092857;28;19915;-71
2023/08/05 04:56:33;;;;;;;;;;;17.80;99.90;;;;;;5092755;28;19915;-67
2023/08/05 04:58:59;;;;;;;;;;;17.70;99.90;;;;;;5092657;28;19940;-66
2023/08/05 05:01:26;;;;;;;;;;;17.70;99.90;;;;;;5092719;28;19908;-67
2023/08/05 05:03:53;;;;;;;;;;;17.80;99.90;;;;;;5102860;28;20023;-68
2023/08/05 05:06:19;;;;;;;;;;;17.70;99.90;;;;;;5113180;28;20002;-66
2023/08/05 05:08:46;;;;;;;;;;;17.70;99.90;;;;;;5113184;28;19908;-66
2023/08/05 05:11:13;;;;;;;;;;;17.70;99.90;;;;;;5104685;28;19958;-66
2023/08/05 05:13:40;;;;;;;;;;;17.60;99.90;;;;;;5092541;28;19935;-68
2023/08/05 05:16:07;;;;;;;;;;;17.50;99.90;;;;;;5092600;28;19908;-67
2023/08/05 05:18:34;;;;;;;;;;;17.50;99.90;;;;;;5092581;28;19938;-67
2023/08/05 05:21:01;;;;;;;;;;;17.40;99.90;;;;;;5092061;28;19914;-68
2023/08/05 05:23:27;;;;;;;;;;;17.40;99.90;;;;;;5092072;28;20521;-66
2023/08/05 05:25:54;;;;;;;;;;;17.40;99.90;;;;;;5092502;28;19912;-65
2023/08/05 05:28:21;;;;;;;;;;;17.30;99.90;;;;;;5092628;28;19912;-68
2023/08/05 05:30:47;;;;;;;;;;;17.30;99.90;;;;;;5094223;28;19908;-66
2023/08/05 05:33:14;;;;;;;;;;;17.20;99.90;;;;;;5112236;28;19993;-66
2023/08/05 05:35:41;;;;;;;;;;;17.20;99.90;;;;;;5094620;28;19931;-66
2023/08/05 05:38:07;;;;;;;;;;;17.10;99.90;;;;;;5112910;28;19915;-65
2023/08/05 05:40:38;;;;;;;;;;;17.00;99.90;;;;;;5110258;28;19912;-67
2023/08/05 05:43:06;;;;;;;;;;;17.10;99.90;;;;;;5092086;28;19923;-67
2023/08/05 05:45:35;;;;;;;;;;;17.10;99.90;;;;;;5092039;28;19923;-66
2023/08/05 05:48:02;;;;;;;;;;;17.10;99.90;;;;;;5091973;28;19908;-67
2023/08/05 05:50:29;;;;;;;;;;;17.10;99.90;;;;;;5092250;28;20364;-66
2023/08/05 05:52:55;;;;;;;;;;;17.10;99.90;;;;;;5094330;28;19915;-64
2023/08/05 05:55:22;;;;;;;;;;;17.20;99.90;;;;;;5111427;28;19912;-67
2023/08/05 05:57:49;;;;;;;;;;;17.30;99.90;;;;;;5115960;28;19920;-66
2023/08/05 06:00:15;;;;;;;;;;;17.30;99.90;;;;;;5115237;27;19915;-65
2023/08/05 06:02:42;;;;;;;;;;;17.40;99.90;;;;;;5115472;28;20364;-68
2023/08/05 06:05:09;;;;;;;;;;;17.40;99.90;;;;;;5101651;28;19962;-68
2023/08/05 06:07:35;;;;;;;;;;;17.40;99.90;;;;;;5078460;28;20307;-70
2023/08/05 06:10:02;;;;;;;;;;;17.30;99.90;;;;;;5099830;28;20003;-70
2023/08/05 06:12:32;;;;;;;;;;;17.20;99.90;;;;;;5114541;28;20362;-69
2023/08/05 06:15:02;;;;;;;;;;;17.20;99.90;;;;;;5115162;27;19907;-67
2023/08/05 06:17:28;;;;;;;;;;;17.20;99.90;;;;;;5096986;28;19912;-68
2023/08/05 06:19:55;;;;;;;;;;;17.10;99.90;;;;;;5114919;28;19964;-66
2023/08/05 06:22:21;;;;;;;;;;;17.10;99.90;;;;;;5114692;28;20421;-63
2023/08/05 06:24:50;;;;;;;;;;;17.10;99.90;;;;;;5104400;27;20365;-68
2023/08/05 06:27:17;;;;;;;;;;;17.00;99.90;;;;;;5100814;28;19998;-66
2023/08/05 06:29:44;;;;;;;;;;;17.00;99.90;;;;;;5109371;28;20040;-65
2023/08/05 06:32:10;;;;;;;;;;;17.00;99.90;;;;;;5112686;28;19979;-66
2023/08/05 06:34:37;;;;;;;;;;;16.90;99.90;;;;;;5110913;28;19919;-67
2023/08/05 06:37:04;;;;;;;;;;;16.90;99.90;;;;;;5112479;28;19915;-66
2023/08/05 06:39:33;;;;;;;;;;;16.90;99.90;;;;;;5111353;28;19912;-65
2023/08/05 06:41:59;;;;;;;;;;;16.90;99.90;;;;;;5093932;28;20383;-65
2023/08/05 06:44:26;;;;;;;;;;;16.70;99.90;;;;;;5103394;28;19920;-67
2023/08/05 06:46:53;;;;;;;;;;;16.70;99.90;;;;;;5106225;27;19912;-64
2023/08/05 06:49:19;;;;;;;;;;;16.70;99.90;;;;;;5112291;28;19907;-69
2023/08/05 06:51:47;;;;;;;;;;;16.70;99.90;;;;;;5095589;28;19912;-67
2023/08/05 06:54:13;;;;;;;;;;;16.70;99.90;;;;;;5100309;28;19926;-65
2023/08/05 06:56:40;;;;;;;;;;;16.70;99.90;;;;;;5109790;28;19930;-66
2023/08/05 06:59:07;;;;;;;;;;;16.70;99.90;;;;;;5113999;28;19912;-69
2023/08/05 07:01:33;;;;;;;;;;;16.60;99.90;;;;;;5113889;28;19961;-69
2023/08/05 07:04:00;;;;;;;;;;;16.60;99.90;;;;;;5104977;28;19920;-67
2023/08/05 07:06:27;;;;;;;;;;;16.50;99.90;;;;;;5093573;28;20315;-66
2023/08/05 07:08:53;;;;;;;;;;;16.50;99.90;;;;;;5110976;28;19957;-69
2023/08/05 07:11:20;;;;;;;;;;;16.40;99.90;;;;;;5114131;28;20276;-67
2023/08/05 07:13:47;;;;;;;;;;;16.40;99.90;;;;;;5107881;27;19912;-67
2023/08/05 07:16:13;;;;;;;;;;;16.40;99.90;;;;;;5095367;28;19916;-70
2023/08/05 07:18:40;;;;;;;;;;;16.40;99.90;;;;;;5112861;27;19973;-66
2023/08/05 07:21:07;;;;;;;;;;;16.40;99.90;;;;;;5112869;28;20015;-66
2023/08/05 07:23:33;;;;;;;;;;;16.30;99.90;;;;;;5112625;28;19912;-65
2023/08/05 07:26:01;;;;;;;;;;;16.30;99.90;;;;;;5094466;28;20318;-64
2023/08/05 07:28:27;;;;;;;;;;;16.20;99.90;;;;;;5092330;28;19908;-65
2023/08/05 07:31:04;;;;;;;;;;;16.30;99.90;;;;;;5106911;28;19919;-65
2023/08/05 07:33:31;;;;;;;;;;;16.20;99.90;;;;;;5112312;28;20345;-64
2023/08/05 07:35:57;;;;;;;;;;;16.20;99.90;;;;;;5114398;28;19929;-64
2023/08/05 07:38:28;;;;;;;;;;;16.20;99.90;;;;;;5114245;28;19908;-64
2023/08/05 07:40:56;;;;;;;;;;;16.20;99.90;;;;;;5107095;28;19916;-64
2023/08/05 07:43:24;;;;;;;;;;;16.20;99.90;;;;;;5092744;28;19955;-66
2023/08/05 07:45:51;;;;;;;;;;;16.10;99.90;;;;;;5093491;28;19920;-66
2023/08/05 07:48:17;;;;;;;;;;;16.20;99.90;;;;;;5093819;28;19908;-65
2023/08/05 07:50:44;;;;;;;;;;;16.10;99.90;;;;;;5093029;28;20385;-66
2023/08/05 07:53:11;;;;;;;;;;;16.10;99.90;;;;;;5094061;28;20373;-64
2023/08/05 07:55:38;;;;;;;;;;;16.00;99.90;;;;;;5093144;28;20363;-65
2023/08/05 07:58:05;;;;;;;;;;;16.00;99.90;;;;;;5093459;28;19916;-66
2023/08/05 08:00:33;;;;;;;;;;;15.90;99.90;;;;;;5093649;28;19962;-67
2023/08/05 08:02:59;;;;;;;;;;;15.90;99.90;;;;;;5093443;28;19954;-66
2023/08/05 08:05:27;;;;;;;;;;;15.80;99.90;;;;;;5093333;28;20237;-63
2023/08/05 08:07:55;;;;;;;;;;;15.80;99.90;;;;;;5093259;28;19965;-66
2023/08/05 08:10:24;;;;;;;;;;;15.80;99.90;;;;;;5093298;28;19914;-66
2023/08/05 08:12:54;;;;;;;;;;;15.70;99.90;;;;;;5093014;28;20426;-66
2023/08/05 08:15:21;;;;;;;;;;;15.70;99.90;;;;;;5092249;28;20364;-65
2023/08/05 08:17:47;;;;;;;;;;;15.70;99.90;;;;;;5093839;28;19908;-65
2023/08/05 08:20:14;;;;;;;;;;;15.70;99.90;;;;;;5092822;28;19963;-66
2023/08/05 08:22:41;;;;;;;;;;;15.70;99.90;;;;;;5098684;28;20010;-64
2023/08/05 08:25:07;;;;;;;;;;;15.60;99.90;;;;;;5112922;28;19926;-65
2023/08/05 08:27:34;;;;;;;;;;;15.60;99.90;;;;;;5102616;28;19916;-66
2023/08/05 08:30:01;;;;;;;;;;;15.50;99.90;;;;;;5092742;28;19908;-68
2023/08/05 08:32:27;;;;;;;;;;;15.40;99.90;;;;;;5112249;28;19911;-67
2023/08/05 08:34:54;;;;;;;;;;;15.50;99.90;;;;;;5094580;28;20329;-65
2023/08/05 08:37:20;;;;;;;;;;;15.50;99.90;;;;;;5112423;28;19919;-65
2023/08/05 08:39:47;;;;;;;;;;;15.50;99.90;;;;;;5112713;28;19915;-64
2023/08/05 08:42:14;;;;;;;;;;;15.50;99.90;;;;;;5112518;28;19912;-65
2023/08/05 08:44:42;;;;;;;;;;;15.50;99.90;;;;;;5112399;28;20006;-66
2023/08/05 08:47:12;;;;;;;;;;;15.50;99.90;;;;;;5111293;28;20129;-65
2023/08/05 08:49:40;;;;;;;;;;;15.50;99.90;;;;;;5112522;28;19965;-67
2023/08/05 08:52:07;;;;;;;;;;;15.50;99.90;;;;;;5106712;28;19916;-65
2023/08/05 08:54:34;;;;;;;;;;;15.50;99.90;;;;;;5112820;28;19911;-65
2023/08/05 08:57:01;;;;;;;;;;;15.50;99.90;;;;;;5113080;28;19908;-64
2023/08/05 08:59:27;;;;;;;;;;;15.40;99.90;;;;;;5112786;28;19908;-65
2023/08/05 09:01:54;;;;;;;;;;;15.50;99.90;;;;;;5112725;28;19912;-64
2023/08/05 09:04:21;;;;;;;;;;;15.50;99.90;;;;;;5112901;28;19937;-65
2023/08/05 09:06:48;;;;;;;;;;;15.50;99.90;;;;;;5112504;28;19912;-66
2023/08/05 09:09:15;;;;;;;;;;;15.50;99.90;;;;;;5111197;28;20368;-64
2023/08/05 09:11:41;;;;;;;;;;;15.50;99.90;;;;;;5111113;28;19918;-67
2023/08/05 09:14:08;;;;;;;;;;;15.50;99.90;;;;;;5111231;28;20015;-65
2023/08/05 09:16:38;;;;;;;;;;;15.50;99.90;;;;;;5111109;28;20407;-64
2023/08/05 09:19:04;;;;;;;;;;;15.50;99.90;;;;;;5111298;28;19938;-66
2023/08/05 09:21:31;;;;;;;;;;;15.40;99.90;;;;;;5110906;28;19919;-64
2023/08/05 09:23:58;;;;;;;;;;;15.40;99.90;;;;;;5111255;28;19916;-66
2023/08/05 09:26:28;;;;;;;;;;;15.40;99.90;;;;;;5113122;28;20020;-66
2023/08/05 09:28:55;;;;;;;;;;;15.50;99.90;;;;;;5116260;28;20352;-66
2023/08/05 09:31:22;;;;;;;;;;;15.50;99.90;;;;;;5115479;28;19918;-66
2023/08/05 09:33:49;;;;;;;;;;;15.50;99.90;;;;;;5116634;28;19916;-67
2023/08/05 09:36:17;;;;;;;;;;;15.50;99.90;;;;;;5116644;28;19934;-65
2023/08/05 09:38:46;;;;;;;;;;;15.50;99.90;;;;;;5111840;28;19919;-65
2023/08/05 09:41:13;;;;;;;;;;;15.50;99.90;;;;;;5095696;28;19908;-66
2023/08/05 09:43:43;;;;;;;;;;;15.40;99.90;;;;;;5097349;28;19939;-67
2023/08/05 09:46:14;;;;;;;;;;;15.50;99.90;;;;;;5096081;28;20368;-68
2023/08/05 09:48:44;;;;;;;;;;;15.50;99.90;;;;;;5095971;28;19912;-67
2023/08/05 09:51:16;;;;;;;;;;;15.50;99.90;;;;;;5096741;28;20360;-68
2023/08/05 09:53:43;;;;;;;;;;;15.40;99.90;;;;;;5109850;28;19912;-68
2023/08/05 09:56:12;;;;;;;;;;;15.40;99.90;;;;;;5115570;28;19908;-70
2023/08/05 09:58:39;;;;;;;;;;;15.50;99.90;;;;;;5114792;28;19940;-66
2023/08/05 10:01:07;;;;;;;;;;;15.50;99.90;;;;;;5115079;28;20257;-67
2023/08/05 10:03:40;;;;;;;;;;;15.40;99.90;;;;;;5115724;28;19908;-65
2023/08/05 10:06:11;;;;;;;;;;;15.40;99.90;;;;;;5116058;28;19920;-65
2023/08/05 10:08:40;;;;;;;;;;;15.50;99.90;;;;;;5096403;28;19912;-67
2023/08/05 10:11:07;;;;;;;;;;;15.40;99.90;;;;;;5096529;28;19908;-68
2023/08/05 10:13:38;;;;;;;;;;;15.40;99.90;;;;;;5107714;28;19919;-66
2023/08/05 10:16:07;;;;;;;;;;;15.40;99.90;;;;;;5095900;28;19912;-69
2023/08/05 10:18:34;;;;;;;;;;;15.40;99.90;;;;;;5095995;28;19908;-69
2023/08/05 10:21:05;;;;;;;;;;;15.50;99.90;;;;;;5099370;28;19919;-69
2023/08/05 10:23:36;;;;;;;;;;;15.50;99.90;;;;;;5094975;28;19912;-65
2023/08/05 10:26:06;;;;;;;;;;;15.50;99.90;;;;;;5095346;28;19916;-66
2023/08/05 10:28:35;;;;;;;;;;;15.50;99.90;;;;;;5105445;28;19907;-66
2023/08/05 10:31:05;;;;;;;;;;;15.50;99.90;;;;;;5096421;28;20003;-65
2023/08/05 10:33:52;;;;;;;;;;;15.50;99.90;;;;;;5094883;28;20379;-65
2023/08/05 10:36:18;;;;;;;;;;;15.50;99.90;;;;;;5113038;28;19908;-66
2023/08/05 10:38:45;;;;;;;;;;;15.60;99.90;;;;;;5114520;28;19939;-67
2023/08/05 10:41:15;;;;;;;;;;;15.60;99.90;;;;;;5115681;28;19908;-69
2023/08/05 10:43:41;;;;;;;;;;;15.60;99.90;;;;;;5114249;28;19951;-68
2023/08/05 10:46:08;;;;;;;;;;;15.70;99.90;;;;;;5115075;28;20280;-65
2023/08/05 10:48:35;;;;;;;;;;;15.70;99.90;;;;;;5112410;28;20010;-67
2023/08/05 10:51:09;;;;;;;;;;;15.70;99.90;;;;;;5114923;28;19987;-61
2023/08/05 10:53:36;;;;;;;;;;;15.70;99.90;;;;;;5114452;28;19916;-66
2023/08/05 10:56:03;;;;;;;;;;;15.80;99.90;;;;;;5114662;28;19908;-67
2023/08/05 10:58:30;;;;;;;;;;;15.80;99.90;;;;;;5112906;28;20328;-66
2023/08/05 11:00:57;;;;;;;;;;;15.90;99.90;;;;;;5113058;28;19912;-65
2023/08/05 11:03:24;;;;;;;;;;;15.90;99.90;;;;;;5102892;28;19923;-65
2023/08/05 11:05:53;;;;;;;;;;;15.90;99.90;;;;;;5094234;28;20315;-66
2023/08/05 11:08:23;;;;;;;;;;;15.90;99.90;;;;;;5115092;27;19919;-67
2023/08/05 11:10:49;;;;;;;;;;;15.80;99.90;;;;;;5120414;27;20015;-71
2023/08/05 11:13:16;;;;;;;;;;;15.80;99.90;;;;;;5101269;27;19911;-68
2023/08/05 11:16:00;;;;;;;;;;;15.80;99.90;;;;;;5127159;27;20322;-66
2023/08/05 11:18:26;;;;;;;;;;;15.90;99.90;;;;;;5114107;27;19916;-68
2023/08/05 11:20:53;;;;;;;;;;;15.70;99.90;;;;;;5116716;27;19935;-69
2023/08/05 11:23:20;;;;;;;;;;;15.60;99.90;;;;;;5111628;28;20298;-68
2023/08/05 11:25:47;;;;;;;;;;;15.60;99.90;;;;;;5113171;28;19972;-67
2023/08/05 11:28:13;;;;;;;;;;;15.50;99.90;;;;;;5113871;28;20352;-69
2023/08/05 11:30:40;;;;;;;;;;;15.40;99.90;;;;;;5112591;28;19911;-68
2023/08/05 11:33:07;;;;;;;;;;;15.50;99.90;;;;;;5109459;28;19911;-66
2023/08/05 11:35:33;;;;;;;;;;;15.40;99.90;;;;;;5113529;28;19912;-67
2023/08/05 11:38:00;;;;;;;;;;;15.40;99.90;;;;;;5089951;28;19912;-64
2023/08/05 11:40:26;;;;;;;;;;;15.40;99.90;;;;;;5093458;28;19999;-68
2023/08/05 11:42:53;;;;;;;;;;;15.40;99.90;;;;;;5111822;27;19912;-66
2023/08/05 11:45:20;;;;;;;;;;;15.40;99.90;;;;;;5111567;28;20563;-66
2023/08/05 11:47:47;;;;;;;;;;;15.40;99.90;;;;;;5110728;28;20007;-68
2023/08/05 11:50:13;;;;;;;;;;;15.40;99.90;;;;;;5109163;28;19912;-67
2023/08/05 11:52:40;;;;;;;;;;;15.40;99.90;;;;;;5112447;27;19912;-69
2023/08/05 11:55:08;;;;;;;;;;;15.40;99.90;;;;;;5111539;28;20248;-70
2023/08/05 11:57:34;;;;;;;;;;;15.40;99.90;;;;;;5112527;28;19968;-67
2023/08/05 12:00:05;;;;;;;;;;;15.30;99.90;;;;;;5111236;28;19966;-67
2023/08/05 12:02:33;;;;;;;;;;;15.40;99.90;;;;;;5110256;28;19907;-68
2023/08/05 12:04:59;;;;;;;;;;;15.40;99.90;;;;;;5112019;28;20372;-67
2023/08/05 12:07:26;;;;;;;;;;;15.40;99.90;;;;;;5110316;28;19912;-68
2023/08/05 12:10:05;;;;;;;;;;;15.40;99.90;;;;;;5109792;28;19919;-68
2023/08/05 12:12:32;;;;;;;;;;;15.30;99.90;;;;;;5096074;28;19934;-67
2023/08/05 12:15:14;;;;;;;;;;;15.30;99.90;;;;;;5092097;28;20300;-69
2023/08/05 12:17:47;;;;;;;;;;;15.30;99.90;;;;;;5109969;28;19965;-67
2023/08/05 12:20:16;;;;;;;;;;;15.30;99.90;;;;;;5111022;28;19919;-67
2023/08/05 12:22:43;;;;;;;;;;;15.30;99.90;;;;;;5112921;28;19914;-68
2023/08/05 12:25:09;;;;;;;;;;;15.20;99.90;;;;;;5112250;28;19927;-67
2023/08/05 12:27:36;;;;;;;;;;;15.20;99.90;;;;;;5104101;28;19918;-68
2023/08/05 12:30:04;;;;;;;;;;;15.20;99.90;;;;;;5106738;28;19919;-69
2023/08/05 12:32:30;;;;;;;;;;;15.20;99.90;;;;;;5112490;28;20006;-70
2023/08/05 12:34:57;;;;;;;;;;;15.10;99.90;;;;;;5112623;28;19911;-70
2023/08/05 12:37:24;;;;;;;;;;;15.10;99.90;;;;;;5120629;27;19919;-71
2023/08/05 12:39:50;;;;;;;;;;;15.10;99.90;;;;;;5122051;27;19986;-68
2023/08/05 12:42:17;;;;;;;;;;;15.10;99.90;;;;;;5118242;27;19918;-67
2023/08/05 12:44:44;;;;;;;;;;;15.00;99.90;;;;;;5113005;28;19975;-71
2023/08/05 12:47:10;;;;;;;;;;;15.10;99.90;;;;;;5112885;28;20370;-68
2023/08/05 12:49:38;;;;;;;;;;;15.10;99.90;;;;;;5113046;28;19908;-70
2023/08/05 12:52:05;;;;;;;;;;;15.10;99.90;;;;;;5112611;28;19911;-70
2023/08/05 12:54:32;;;;;;;;;;;15.10;99.90;;;;;;5112002;28;19922;-67
2023/08/05 12:56:59;;;;;;;;;;;15.10;99.90;;;;;;5112104;28;20276;-70
2023/08/05 12:59:25;;;;;;;;;;;15.10;99.90;;;;;;5113080;28;20249;-70
2023/08/05 13:01:52;;;;;;;;;;;15.10;99.90;;;;;;5112621;28;19908;-69
2023/08/05 13:04:19;;;;;;;;;;;15.10;99.90;;;;;;5091114;28;19916;-67
2023/08/05 13:06:45;;;;;;;;;;;15.10;99.90;;;;;;5110444;28;20064;-68
2023/08/05 13:09:12;;;;;;;;;;;15.00;99.90;;;;;;5114629;28;19911;-68
2023/08/05 13:11:38;;;;;;;;;;;15.00;99.90;;;;;;5116270;28;19971;-68
2023/08/05 13:14:05;;;;;;;;;;;15.00;99.90;;;;;;5113184;28;19911;-68
2023/08/05 13:16:32;;;;;;;;;;;15.00;99.90;;;;;;5116479;28;20376;-70
2023/08/05 13:18:58;;;;;;;;;;;15.00;99.90;;;;;;5116809;28;19908;-68
2023/08/05 13:21:25;;;;;;;;;;;14.90;99.90;;;;;;5115713;28;19919;-71
2023/08/05 13:23:52;;;;;;;;;;;14.90;99.90;;;;;;5116549;28;20383;-72
2023/08/05 13:26:18;;;;;;;;;;;14.80;99.90;;;;;;5116516;28;19908;-70
2023/08/05 13:28:45;;;;;;;;;;;14.80;99.90;;;;;;5102813;28;19912;-71
2023/08/05 13:31:12;;;;;;;;;;;14.80;99.90;;;;;;5096130;28;20248;-69
2023/08/05 13:33:39;;;;;;;;;;;14.80;99.90;;;;;;5096294;28;20297;-68
2023/08/05 13:36:06;;;;;;;;;;;14.80;99.90;;;;;;5096290;28;19915;-68
2023/08/05 13:38:32;;;;;;;;;;;14.80;99.90;;;;;;5110812;28;19912;-67
2023/08/05 13:40:59;;;;;;;;;;;14.80;99.90;;;;;;5116580;28;19947;-68
2023/08/05 13:43:26;;;;;;;;;;;14.80;99.90;;;;;;5115650;28;20018;-66
2023/08/05 13:45:54;;;;;;;;;;;14.80;99.90;;;;;;5116332;28;19958;-69
2023/08/05 13:48:21;;;;;;;;;;;14.70;99.90;;;;;;5117080;28;19919;-69
2023/08/05 13:50:48;;;;;;;;;;;14.70;99.90;;;;;;5103829;28;19912;-71
2023/08/05 13:53:14;;;;;;;;;;;14.70;99.90;;;;;;5077650;28;20436;-69
2023/08/05 13:55:41;;;;;;;;;;;14.60;99.90;;;;;;5095946;28;19915;-69
2023/08/05 13:58:08;;;;;;;;;;;14.60;99.90;;;;;;5095707;28;19931;-70
2023/08/05 14:00:37;;;;;;;;;;;14.50;99.90;;;;;;5095805;28;20004;-68
2023/08/05 14:03:04;;;;;;;;;;;14.50;99.90;;;;;;5095099;28;19908;-70
2023/08/05 14:05:32;;;;;;;;;;;14.50;99.90;;;;;;5095271;28;19924;-67
2023/08/05 14:07:59;;;;;;;;;;;14.50;99.90;;;;;;5103062;28;19916;-70
2023/08/05 14:10:25;;;;;;;;;;;14.50;99.90;;;;;;5115512;28;19977;-68
2023/08/05 14:12:52;;;;;;;;;;;14.50;99.90;;;;;;5114827;28;19962;-66
2023/08/05 14:15:18;;;;;;;;;;;14.40;99.90;;;;;;5115685;28;20365;-69
2023/08/05 14:17:45;;;;;;;;;;;14.40;99.90;;;;;;5109912;28;19998;-64